createdAt,value
2017-11-19T00:01:29.681Z,98016.64
2017-11-19T00:03:57.937Z,98013.52
2017-11-19T00:06:26.205Z,98022.17
2017-11-19T00:08:54.455Z,98024.70
2017-11-19T00:11:23.508Z,98016.39
2017-11-19T00:13:51.771Z,98007.31
2017-11-19T00:16:20.064Z,97999.55
2017-11-19T00:18:48.320Z,98000.55
2017-11-19T00:21:16.598Z,97995.52
2017-11-19T00:23:44.871Z,97985.83
2017-11-19T00:26:13.137Z,97987.56
2017-11-19T00:28:41.405Z,97996.08
2017-11-19T00:31:09.677Z,97972.61
2017-11-19T00:33:37.957Z,97986.02
2017-11-19T00:36:06.224Z,97980.17
2017-11-19T00:38:34.491Z,97978.63
2017-11-19T00:41:03.492Z,97979.86
2017-11-19T00:43:31.756Z,97976.97
2017-11-19T00:46:00.777Z,97968.06
2017-11-19T00:48:29.042Z,97963.98
2017-11-19T00:50:57.309Z,97958.56
2017-11-19T00:53:25.568Z,97953.91
2017-11-19T00:55:54.596Z,97956.01
2017-11-19T00:58:22.866Z,97960.72
2017-11-19T01:00:51.150Z,97949.00
2017-11-19T01:03:19.410Z,97945.64
2017-11-19T01:05:47.696Z,97945.27
2017-11-19T01:08:15.967Z,97944.33
2017-11-19T01:10:44.232Z,97937.17
2017-11-19T01:13:13.259Z,97932.61
2017-11-19T01:15:41.512Z,97927.17
2017-11-19T01:18:09.783Z,97928.98
2017-11-19T01:20:38.056Z,97928.44
2017-11-19T01:23:06.325Z,97918.05
2017-11-19T01:25:34.636Z,97915.09
2017-11-19T01:28:02.897Z,97915.86
2017-11-19T01:30:31.169Z,97914.30
2017-11-19T01:32:59.450Z,97918.08
2017-11-19T01:35:27.725Z,97922.45
2017-11-19T01:37:55.969Z,97925.20
2017-11-19T01:40:25.000Z,97928.59
2017-11-19T01:42:53.273Z,97934.63
2017-11-19T01:45:21.546Z,97923.22
2017-11-19T01:47:49.800Z,97925.24
2017-11-19T01:50:18.078Z,97915.26
2017-11-19T01:52:46.345Z,97920.73
2017-11-19T01:55:14.611Z,97907.75
2017-11-19T01:57:43.643Z,97904.66
2017-11-19T02:00:11.909Z,97900.73
2017-11-19T02:02:40.181Z,97887.16
2017-11-19T02:05:08.436Z,97881.78
2017-11-19T02:07:37.489Z,97882.60
2017-11-19T02:10:05.749Z,97879.66
2017-11-19T02:12:34.022Z,97881.38
2017-11-19T02:15:02.287Z,97878.04
2017-11-19T02:17:30.555Z,97877.22
2017-11-19T02:19:58.833Z,97876.44
2017-11-19T02:22:27.133Z,97868.80
2017-11-19T02:24:55.398Z,97863.88
2017-11-19T02:27:23.670Z,97866.48
2017-11-19T02:29:51.937Z,97860.30
2017-11-19T02:32:20.214Z,97855.62
2017-11-19T02:34:48.487Z,97850.27
2017-11-19T02:37:16.741Z,97846.67
2017-11-19T02:39:45.016Z,97846.27
2017-11-19T02:42:13.299Z,97837.14
2017-11-19T02:44:41.594Z,97849.78
2017-11-19T02:47:09.848Z,97849.32
2017-11-19T02:49:38.877Z,97844.36
2017-11-19T02:52:07.127Z,97845.67
2017-11-19T02:54:35.410Z,97838.47
2017-11-19T02:57:03.660Z,97837.70
2017-11-19T02:59:32.718Z,97844.30
2017-11-19T03:02:00.984Z,97839.38
2017-11-19T03:04:29.268Z,97836.13
2017-11-19T03:06:57.541Z,97832.16
2017-11-19T03:09:25.812Z,97830.59
2017-11-19T03:11:54.079Z,97835.61
2017-11-19T03:14:22.336Z,97822.69
2017-11-19T03:16:50.619Z,97828.96
2017-11-19T03:22:15.952Z,97834.75
2017-11-19T03:24:44.234Z,97838.00
2017-11-19T03:27:12.479Z,97849.08
2017-11-19T03:29:40.757Z,97849.45
2017-11-19T03:32:09.033Z,97846.31
2017-11-19T03:34:37.284Z,97848.50
2017-11-19T03:37:06.337Z,97839.15
2017-11-19T03:39:34.618Z,97833.51
2017-11-19T03:42:02.882Z,97837.33
2017-11-19T03:44:31.142Z,97836.39
2017-11-19T03:46:59.380Z,97834.36
2017-11-19T03:49:28.399Z,97834.00
2017-11-19T03:51:56.643Z,97836.05
2017-11-19T03:54:24.884Z,97834.30
2017-11-19T03:56:53.128Z,97841.03
2017-11-19T03:59:21.376Z,97827.99
2017-11-19T04:01:50.384Z,97832.61
2017-11-19T04:04:18.636Z,97830.02
2017-11-19T04:06:47.648Z,97833.80
2017-11-19T04:09:16.661Z,97830.34
2017-11-19T04:11:44.907Z,97826.88
2017-11-19T04:14:13.933Z,97829.06
2017-11-19T04:16:42.172Z,97825.22
2017-11-19T04:19:11.189Z,97821.73
2017-11-19T04:21:39.436Z,97809.29
2017-11-19T04:24:08.450Z,97807.70
2017-11-19T04:26:36.703Z,97811.33
2017-11-19T04:29:05.711Z,97810.48
2017-11-19T04:31:33.965Z,97815.86
2017-11-19T04:34:02.202Z,97819.93
2017-11-19T04:36:30.446Z,97828.84
2017-11-19T04:38:58.695Z,97825.79
2017-11-19T04:41:27.720Z,97826.64
2017-11-19T04:43:55.967Z,97831.30
2017-11-19T04:46:24.207Z,97838.29
2017-11-19T04:48:52.451Z,97830.34
2017-11-19T04:51:20.694Z,97835.36
2017-11-19T04:53:49.706Z,97835.02
2017-11-19T04:56:17.965Z,97839.64
2017-11-19T04:58:46.975Z,97831.34
2017-11-19T05:01:15.239Z,97836.55
2017-11-19T05:03:44.251Z,97830.02
2017-11-19T05:06:12.498Z,97827.32
2017-11-19T05:08:41.523Z,97834.37
2017-11-19T05:11:09.766Z,97831.71
2017-11-19T05:13:38.012Z,97839.55
2017-11-19T05:16:06.272Z,97845.04
2017-11-19T05:18:34.515Z,97839.69
2017-11-19T05:21:02.764Z,97843.22
2017-11-19T05:23:31.774Z,97840.72
2017-11-19T05:26:00.025Z,97845.18
2017-11-19T05:28:28.275Z,97849.03
2017-11-19T05:30:56.530Z,97860.09
2017-11-19T05:33:24.786Z,97852.14
2017-11-19T05:35:53.015Z,97854.98
2017-11-19T05:38:21.267Z,97864.95
2017-11-19T05:40:49.499Z,97854.07
2017-11-19T05:43:18.510Z,97856.48
2017-11-19T05:45:46.747Z,97864.19
2017-11-19T05:48:14.993Z,97856.34
2017-11-19T05:50:43.250Z,97861.64
2017-11-19T05:53:11.501Z,97858.72
2017-11-19T05:55:39.763Z,97863.05
2017-11-19T05:58:08.784Z,97859.58
2017-11-19T06:00:37.032Z,97861.26
2017-11-19T06:03:06.056Z,97861.97
2017-11-19T06:05:34.320Z,97855.34
2017-11-19T06:08:02.564Z,97851.02
2017-11-19T06:10:31.576Z,97855.50
2017-11-19T06:13:00.583Z,97852.19
2017-11-19T06:15:28.830Z,97860.58
2017-11-19T06:17:57.859Z,97860.66
2017-11-19T06:20:26.086Z,97870.78
2017-11-19T06:22:54.328Z,97870.69
2017-11-19T06:25:22.572Z,97878.16
2017-11-19T06:27:50.829Z,97883.63
2017-11-19T06:30:19.841Z,97891.23
2017-11-19T06:32:48.096Z,97899.73
2017-11-19T06:35:17.102Z,97901.81
2017-11-19T06:37:45.380Z,97910.15
2017-11-19T06:40:13.631Z,97912.77
2017-11-19T06:42:42.642Z,97923.88
2017-11-19T06:45:10.899Z,97917.36
2017-11-19T06:47:39.147Z,97923.25
2017-11-19T06:50:07.403Z,97926.53
2017-11-19T06:52:35.687Z,97938.84
2017-11-19T06:55:03.908Z,97946.94
2017-11-19T06:57:32.929Z,97951.89
2017-11-19T07:00:01.176Z,97949.55
2017-11-19T07:02:30.193Z,97950.87
2017-11-19T07:04:58.452Z,97948.82
2017-11-19T07:07:27.461Z,97954.69
2017-11-19T07:09:55.939Z,97958.45
2017-11-19T07:12:24.190Z,97972.74
2017-11-19T07:14:53.211Z,97978.97
2017-11-19T07:17:21.455Z,97990.05
2017-11-19T07:19:50.505Z,97986.97
2017-11-19T07:22:18.730Z,97995.37
2017-11-19T07:24:47.767Z,97995.30
2017-11-19T07:27:16.016Z,97994.28
2017-11-19T07:29:44.261Z,97997.33
2017-11-19T07:32:12.516Z,98006.27
2017-11-19T07:34:40.772Z,98018.05
2017-11-19T07:37:09.024Z,98021.13
2017-11-19T07:39:37.268Z,98017.84
2017-11-19T07:42:05.520Z,98011.83
2017-11-19T07:44:33.755Z,98018.13
2017-11-19T07:47:02.002Z,98016.11
2017-11-19T07:49:31.014Z,98019.59
2017-11-19T07:51:59.268Z,98024.12
2017-11-19T07:54:27.505Z,98028.17
2017-11-19T07:56:55.760Z,98023.14
2017-11-19T07:59:24.002Z,98023.11
2017-11-19T08:01:53.059Z,98023.59
2017-11-19T08:04:21.279Z,98028.16
2017-11-19T08:06:49.527Z,98035.80
2017-11-19T08:09:17.787Z,98047.38
2017-11-19T08:11:46.035Z,98052.05
2017-11-19T08:14:14.274Z,98039.57
2017-11-19T08:16:42.529Z,98032.56
2017-11-19T08:19:10.785Z,98035.95
2017-11-19T08:21:39.035Z,98040.91
2017-11-19T08:24:07.286Z,98045.88
2017-11-19T08:26:35.537Z,98039.25
2017-11-19T08:29:04.581Z,98045.94
2017-11-19T08:31:32.820Z,98042.56
2017-11-19T08:34:01.836Z,98049.91
2017-11-19T08:36:30.076Z,98053.83
2017-11-19T08:38:59.099Z,98055.54
2017-11-19T08:41:27.344Z,98051.80
2017-11-19T08:43:56.368Z,98050.59
2017-11-19T08:46:24.608Z,98053.30
2017-11-19T08:48:52.859Z,98065.16
2017-11-19T08:51:21.099Z,98061.14
2017-11-19T08:53:49.342Z,98062.58
2017-11-19T08:56:18.357Z,98063.39
2017-11-19T08:58:46.604Z,98060.77
2017-11-19T09:01:15.618Z,98062.83
2017-11-19T09:03:43.858Z,98061.37
2017-11-19T09:06:12.107Z,98064.36
2017-11-19T09:08:40.335Z,98077.12
2017-11-19T09:11:09.349Z,98074.20
2017-11-19T09:13:37.577Z,98069.09
2017-11-19T09:16:05.829Z,98078.70
2017-11-19T09:18:34.830Z,98089.38
2017-11-19T09:21:03.066Z,98087.24
2017-11-19T09:23:31.319Z,98076.32
2017-11-19T09:26:00.345Z,98089.92
2017-11-19T09:28:28.579Z,98098.02
2017-11-19T09:30:56.811Z,98078.84
2017-11-19T09:33:25.053Z,98092.19
2017-11-19T09:35:53.293Z,98087.52
2017-11-19T09:38:21.541Z,98095.55
2017-11-19T09:40:49.776Z,98096.31
2017-11-19T09:43:18.784Z,98098.69
2017-11-19T09:45:47.018Z,98104.83
2017-11-19T09:48:16.029Z,98097.17
2017-11-19T09:50:45.037Z,98111.12
2017-11-19T09:53:13.284Z,98095.83
2017-11-19T09:55:42.312Z,98102.25
2017-11-19T09:58:10.577Z,98113.86
2017-11-19T10:00:39.574Z,98109.98
2017-11-19T10:03:07.912Z,98102.20
2017-11-19T10:05:36.219Z,98100.55
2017-11-19T10:08:04.579Z,98111.80
2017-11-19T10:10:33.618Z,98105.19
2017-11-19T10:13:01.921Z,98106.90
2017-11-19T10:15:30.192Z,98108.56
2017-11-19T10:17:58.457Z,98114.90
2017-11-19T10:20:26.728Z,98116.97
2017-11-19T10:22:54.998Z,98119.08
2017-11-19T10:25:23.256Z,98114.28
2017-11-19T10:27:51.525Z,98111.25
2017-11-19T10:30:19.799Z,98124.34
2017-11-19T10:32:48.053Z,98119.33
2017-11-19T10:35:16.287Z,98121.92
2017-11-19T10:37:45.284Z,98117.53
2017-11-19T10:40:13.532Z,98112.75
2017-11-19T10:42:41.775Z,98115.02
2017-11-19T10:45:10.775Z,98126.09
2017-11-19T10:47:39.779Z,98129.62
2017-11-19T10:50:08.015Z,98128.25
2017-11-19T10:52:36.269Z,98118.37
2017-11-19T10:55:04.517Z,98121.68
2017-11-19T10:57:32.755Z,98126.48
2017-11-19T11:00:02.080Z,98126.76
2017-11-19T11:02:30.403Z,98120.73
2017-11-19T11:04:58.709Z,98125.75
2017-11-19T11:07:27.761Z,98125.70
2017-11-19T11:09:55.999Z,98123.79
2017-11-19T11:12:27.207Z,98132.69
2017-11-19T11:14:58.321Z,98134.13
2017-11-19T11:17:26.670Z,98133.50
2017-11-19T11:19:58.721Z,98133.80
2017-11-19T11:22:31.549Z,98126.47
2017-11-19T11:25:03.009Z,98132.05
2017-11-19T11:27:33.446Z,98114.03
2017-11-19T11:30:07.867Z,98124.06
2017-11-19T11:32:41.889Z,98127.87
2017-11-19T11:35:10.195Z,98121.75
2017-11-19T11:37:38.600Z,98129.69
2017-11-19T11:40:06.949Z,98129.87
2017-11-19T11:42:35.351Z,98137.38
2017-11-19T11:48:04.911Z,98134.75
2017-11-19T11:50:33.268Z,98135.27
2017-11-19T11:53:02.713Z,98132.11
2017-11-19T11:55:32.777Z,98133.34
2017-11-19T11:58:06.149Z,98124.28
2017-11-19T12:00:34.506Z,98123.55
2017-11-19T12:03:09.741Z,98122.09
2017-11-19T12:05:38.015Z,98123.11
2017-11-19T12:08:06.255Z,98111.28
2017-11-19T12:10:34.504Z,98130.59
2017-11-19T12:13:02.749Z,98122.48
2017-11-19T12:15:31.776Z,98126.86
2017-11-19T12:18:00.045Z,98131.02
2017-11-19T12:20:28.321Z,98126.59
2017-11-19T12:22:56.564Z,98124.95
2017-11-19T12:25:24.802Z,98129.86
2017-11-19T12:27:53.058Z,98131.08
2017-11-19T12:30:21.289Z,98138.56
2017-11-19T12:32:49.545Z,98134.66
2017-11-19T12:35:17.784Z,98133.13
2017-11-19T12:37:46.041Z,98135.08
2017-11-19T12:53:58.576Z,98142.09
2017-11-19T12:56:26.850Z,98141.89
2017-11-19T12:58:55.114Z,98136.91
2017-11-19T13:01:23.368Z,98148.75
2017-11-19T13:03:52.369Z,98139.46
2017-11-19T13:06:20.618Z,98137.09
2017-11-19T13:08:49.954Z,98128.13
2017-11-19T13:11:18.246Z,98136.11
2017-11-19T13:13:47.297Z,98148.78
2017-11-19T13:16:15.615Z,98135.48
2017-11-19T13:18:43.937Z,98135.77
2017-11-19T13:21:13.554Z,98130.58
2017-11-19T13:23:42.602Z,98130.70
2017-11-19T13:26:10.953Z,98133.23
2017-11-19T13:28:39.241Z,98144.75
2017-11-19T13:31:07.518Z,98152.12
2017-11-19T13:33:35.793Z,98147.64
2017-11-19T13:36:04.258Z,98147.72
2017-11-19T13:38:32.540Z,98143.31
2017-11-19T13:41:00.823Z,98154.02
2017-11-19T13:43:29.856Z,98158.70
2017-11-19T13:45:58.109Z,98161.73
2017-11-19T13:48:26.365Z,98161.67
2017-11-19T13:50:54.631Z,98161.98
2017-11-19T13:53:22.862Z,98160.41
2017-11-19T13:55:51.115Z,98160.38
2017-11-19T13:58:19.359Z,98152.08
2017-11-19T14:00:47.598Z,98147.84
2017-11-19T14:03:15.839Z,98158.61
2017-11-19T14:05:44.094Z,98157.73
2017-11-19T14:08:12.317Z,98158.59
2017-11-19T14:10:40.569Z,98166.20
2017-11-19T14:13:08.808Z,98158.27
2017-11-19T14:15:37.048Z,98164.19
2017-11-19T14:18:06.056Z,98162.47
2017-11-19T14:20:35.068Z,98164.48
2017-11-19T14:23:03.308Z,98164.47
2017-11-19T14:25:32.320Z,98160.17
2017-11-19T14:28:00.555Z,98163.22
2017-11-19T14:30:28.795Z,98163.52
2017-11-19T14:32:57.055Z,98162.70
2017-11-19T14:35:26.091Z,98170.75
2017-11-19T14:37:54.370Z,98171.06
2017-11-19T14:40:22.650Z,98170.63
2017-11-19T14:42:50.901Z,98172.17
2017-11-19T14:45:19.151Z,98169.13
2017-11-19T14:47:47.413Z,98164.84
2017-11-19T14:50:16.438Z,98168.16
2017-11-19T14:52:44.687Z,98185.77
2017-11-19T14:55:12.948Z,98185.14
2017-11-19T14:57:41.993Z,98179.34
2017-11-19T15:00:10.265Z,98179.70
2017-11-19T15:02:38.531Z,98184.72
2017-11-19T15:05:06.813Z,98183.78
2017-11-19T15:07:35.065Z,98181.98
2017-11-19T15:10:03.471Z,98179.97
2017-11-19T15:12:31.736Z,98195.22
2017-11-19T15:14:59.996Z,98172.08
2017-11-19T15:17:28.265Z,98199.61
2017-11-19T15:19:57.338Z,98198.25
2017-11-19T15:22:26.389Z,98215.03
2017-11-19T15:24:54.627Z,98197.37
2017-11-19T15:27:23.668Z,98186.31
2017-11-19T15:29:51.924Z,98195.61
2017-11-19T15:32:20.163Z,98193.81
2017-11-19T15:35:04.297Z,98200.10
2017-11-19T15:37:33.527Z,98209.27
2017-11-19T15:40:01.767Z,98206.66
2017-11-19T15:42:30.223Z,98213.41
2017-11-19T15:44:58.742Z,98216.22
2017-11-19T15:47:27.775Z,98223.66
2017-11-19T15:49:56.080Z,98239.80
2017-11-19T15:52:24.605Z,98231.23
2017-11-19T15:54:55.793Z,98230.41
2017-11-19T15:57:24.413Z,98236.89
2017-11-19T15:59:52.844Z,98230.19
2017-11-19T16:02:21.315Z,98229.94
2017-11-19T16:04:49.833Z,98236.91
2017-11-19T16:07:18.288Z,98236.89
2017-11-19T16:09:46.771Z,98248.50
2017-11-19T16:12:15.214Z,98247.34
2017-11-19T16:14:44.423Z,98230.50
2017-11-19T16:17:12.823Z,98238.17
2017-11-19T16:19:41.276Z,98240.61
2017-11-19T16:22:09.767Z,98241.43
2017-11-19T16:24:39.293Z,98251.03
2017-11-19T16:27:07.648Z,98243.84
2017-11-19T16:29:35.964Z,98232.89
2017-11-19T16:32:05.008Z,98240.59
2017-11-19T16:34:33.301Z,98239.33
2017-11-19T16:37:01.834Z,98233.44
2017-11-19T16:39:30.166Z,98238.03
2017-11-19T16:41:58.479Z,98242.16
2017-11-19T16:44:26.913Z,98248.38
2017-11-19T16:46:55.252Z,98246.33
2017-11-19T16:49:23.734Z,98250.91
2017-11-19T16:51:52.806Z,98252.58
2017-11-19T16:54:21.080Z,98249.47
2017-11-19T16:56:49.493Z,98243.41
2017-11-19T16:59:18.589Z,98256.36
2017-11-19T17:01:47.024Z,98256.32
2017-11-19T17:04:15.357Z,98259.20
2017-11-19T17:06:43.702Z,98254.38
2017-11-19T17:09:11.980Z,98251.42
2017-11-19T17:11:41.076Z,98258.31
2017-11-19T17:14:09.349Z,98265.09
2017-11-19T17:16:37.632Z,98266.86
2017-11-19T17:19:06.699Z,98264.74
2017-11-19T17:21:34.998Z,98261.00
2017-11-19T17:27:19.167Z,98251.53
2017-11-19T17:29:47.434Z,98271.02
2017-11-19T17:32:15.956Z,98285.59
2017-11-19T17:34:44.241Z,98270.76
2017-11-19T17:37:12.503Z,98279.61
2017-11-19T17:39:41.583Z,98271.65
2017-11-19T17:42:10.870Z,98283.55
2017-11-19T17:44:39.165Z,98271.93
2017-11-19T17:47:08.208Z,98277.12
2017-11-19T17:49:36.588Z,98280.50
2017-11-19T17:52:04.865Z,98275.62
2017-11-19T17:54:33.133Z,98286.27
2017-11-19T17:57:01.405Z,98287.34
2017-11-19T17:59:29.666Z,98286.09
2017-11-19T18:01:57.960Z,98285.59
2017-11-19T18:04:26.278Z,98288.14
2017-11-19T18:06:54.618Z,98284.88
2017-11-19T18:09:23.124Z,98282.53
2017-11-19T18:11:52.356Z,98297.59
2017-11-19T18:14:21.414Z,98292.97
2017-11-19T18:16:49.715Z,98293.03
2017-11-19T18:19:18.198Z,98293.60
2017-11-19T18:21:47.399Z,98293.16
2017-11-19T18:24:16.599Z,98294.84
2017-11-19T18:26:45.732Z,98292.17
2017-11-19T18:29:14.035Z,98303.61
2017-11-19T18:31:42.361Z,98310.19
2017-11-19T18:34:10.652Z,98317.36
2017-11-19T18:36:38.965Z,98316.86
2017-11-19T18:39:07.298Z,98335.47
2017-11-19T18:41:35.620Z,98332.40
2017-11-19T18:44:04.093Z,98332.47
2017-11-19T18:46:33.171Z,98343.88
2017-11-19T18:49:01.461Z,98344.82
2017-11-19T18:51:29.846Z,98350.66
2017-11-19T18:53:58.140Z,98357.94
2017-11-19T18:56:31.097Z,98355.63
2017-11-19T18:58:59.444Z,98359.63
2017-11-19T19:01:27.788Z,98362.42
2017-11-19T19:03:56.809Z,98376.20
2017-11-19T19:06:25.061Z,98373.96
2017-11-19T19:08:54.098Z,98372.98
2017-11-19T19:11:22.367Z,98384.80
2017-11-19T19:13:50.649Z,98389.78
2017-11-19T19:16:18.917Z,98394.31
2017-11-19T19:18:47.208Z,98401.29
2017-11-19T19:21:15.492Z,98408.08
2017-11-19T19:23:43.763Z,98404.12
2017-11-19T19:26:12.832Z,98412.66
2017-11-19T19:28:41.131Z,98411.60
2017-11-19T19:31:09.392Z,98417.94
2017-11-19T19:33:37.677Z,98419.75
2017-11-19T19:36:06.592Z,98424.19
2017-11-19T19:38:35.032Z,98429.45
2017-11-19T19:41:03.287Z,98430.42
2017-11-19T19:43:32.387Z,98433.28
2017-11-19T19:46:00.724Z,98427.33
2017-11-19T19:48:29.172Z,98429.93
2017-11-19T19:50:57.436Z,98424.06
2017-11-19T19:53:25.724Z,98423.25
2017-11-19T19:55:53.988Z,98423.98
2017-11-19T19:58:22.259Z,98415.82
2017-11-19T20:00:50.552Z,98417.59
2017-11-19T20:03:18.857Z,98420.03
2017-11-19T20:05:47.124Z,98430.79
2017-11-19T20:08:15.440Z,98435.27
2017-11-19T20:10:43.723Z,98430.19
2017-11-19T20:13:12.096Z,98432.44
2017-11-19T20:15:41.136Z,98447.89
2017-11-19T20:18:09.409Z,98435.53
2017-11-19T20:20:37.690Z,98446.67
2017-11-19T20:23:05.988Z,98438.32
2017-11-19T20:25:34.265Z,98439.01
2017-11-19T20:28:02.554Z,98433.94
2017-11-19T20:30:30.836Z,98434.20
2017-11-19T20:32:59.885Z,98437.05
2017-11-19T20:35:28.228Z,98442.48
2017-11-19T20:37:56.515Z,98445.39
2017-11-19T20:40:24.784Z,98451.52
2017-11-19T20:42:53.822Z,98461.57
2017-11-19T20:45:22.118Z,98461.72
2017-11-19T20:47:50.457Z,98469.72
2017-11-19T20:50:18.745Z,98476.96
2017-11-19T20:52:47.012Z,98479.73
2017-11-19T20:55:15.286Z,98471.22
2017-11-19T20:57:43.550Z,98468.70
2017-11-19T21:00:11.824Z,98474.58
2017-11-19T21:02:40.098Z,98479.59
2017-11-19T21:05:08.374Z,98477.44
2017-11-19T21:07:36.649Z,98478.61
2017-11-19T21:10:04.947Z,98485.02
2017-11-19T21:12:33.211Z,98474.56
2017-11-19T21:15:01.491Z,98489.31
2017-11-19T21:17:29.845Z,98490.22
2017-11-19T21:19:58.928Z,98498.20
2017-11-19T21:22:27.981Z,98496.10
2017-11-19T21:24:56.271Z,98493.63
2017-11-19T21:27:24.544Z,98493.00
2017-11-19T21:29:52.863Z,98503.21
2017-11-19T21:32:21.165Z,98494.03
2017-11-19T21:34:49.425Z,98508.19
2017-11-19T21:37:17.733Z,98503.47
2017-11-19T21:39:45.989Z,98489.47
2017-11-19T22:28:30.429Z,98528.44
2017-11-19T22:31:02.824Z,98528.97
2017-11-19T22:33:42.646Z,98529.86
2017-11-19T22:36:33.156Z,98523.72
2017-11-19T22:44:08.972Z,98521.30
2017-11-19T22:46:37.212Z,98528.34
2017-11-19T22:49:05.492Z,98524.95
2017-11-19T22:51:33.721Z,98524.05
2017-11-19T22:54:01.998Z,98530.20
2017-11-19T22:56:30.247Z,98536.37
2017-11-19T22:58:58.500Z,98540.02
2017-11-19T23:01:26.751Z,98538.73
2017-11-19T23:03:55.750Z,98524.83
2017-11-19T23:06:24.057Z,98513.77
2017-11-19T23:08:52.295Z,98524.63
2017-11-19T23:11:20.541Z,98535.17
2017-11-19T23:13:48.792Z,98527.47
2017-11-19T23:16:17.044Z,98539.01
2017-11-19T23:18:45.292Z,98537.45
2017-11-19T23:21:14.295Z,98544.82
2017-11-19T23:23:42.567Z,98547.57
2017-11-19T23:26:10.814Z,98542.27
2017-11-19T23:28:39.059Z,98553.50
2017-11-19T23:31:07.296Z,98551.31
2017-11-19T23:33:35.552Z,98558.98
2017-11-19T23:36:04.571Z,98553.43
2017-11-19T23:38:32.817Z,98555.52
2017-11-19T23:41:01.835Z,98557.13
2017-11-19T23:43:30.079Z,98552.42
2017-11-19T23:45:58.332Z,98553.61
2017-11-19T23:48:26.572Z,98548.61
2017-11-19T23:50:54.814Z,98544.02
2017-11-19T23:53:23.817Z,98540.06
2017-11-19T23:55:52.074Z,98537.94
2017-11-19T23:58:20.311Z,98541.82
